sensor_id;sensor_type;location;lat;lon;timestamp;P1;durP1;ratioP1;P2;durP2;ratioP2
5121;SDS011;2563;52.242;7.956;2024-02-21T00:01:46;30.07;;;10.00;;
5121;SDS011;2563;52.242;7.956;2024-02-21T00:04:12;27.83;;;8.17;;
5121;SDS011;2563;52.242;7.956;2024-02-21T00:06:37;21.13;;;8.40;;
5121;SDS011;2563;52.242;7.956;2024-02-21T00:09:03;23.00;;;8.30;;
5121;SDS011;2563;52.242;7.956;2024-02-21T00:11:28;26.10;;;9.17;;
5121;SDS011;2563;52.242;7.956;2024-02-21T00:13:53;28.93;;;9.43;;
5121;SDS011;2563;52.242;7.956;2024-02-21T00:16:19;26.17;;;8.70;;
5121;SDS011;2563;52.242;7.956;2024-02-21T00:18:44;30.27;;;8.90;;
5121;SDS011;2563;52.242;7.956;2024-02-21T00:21:10;23.43;;;8.40;;
5121;SDS011;2563;52.242;7.956;2024-02-21T00:23:40;29.87;;;7.87;;
5121;SDS011;2563;52.242;7.956;2024-02-21T00:26:05;24.07;;;8.40;;
5121;SDS011;2563;52.242;7.956;2024-02-21T00:28:31;24.40;;;9.63;;
5121;SDS011;2563;52.242;7.956;2024-02-21T00:30:56;27.73;;;9.37;;
5121;SDS011;2563;52.242;7.956;2024-02-21T00:33:21;19.33;;;7.97;;
5121;SDS011;2563;52.242;7.956;2024-02-21T00:35:47;29.73;;;8.97;;
5121;SDS011;2563;52.242;7.956;2024-02-21T00:38:12;21.80;;;7.83;;
5121;SDS011;2563;52.242;7.956;2024-02-21T00:40:38;28.33;;;7.63;;
5121;SDS011;2563;52.242;7.956;2024-02-21T00:43:03;25.03;;;8.50;;
5121;SDS011;2563;52.242;7.956;2024-02-21T00:45:28;27.20;;;8.90;;
5121;SDS011;2563;52.242;7.956;2024-02-21T00:47:54;18.53;;;7.80;;
5121;SDS011;2563;52.242;7.956;2024-02-21T00:50:19;22.40;;;8.20;;
5121;SDS011;2563;52.242;7.956;2024-02-21T00:52:45;27.10;;;8.33;;
5121;SDS011;2563;52.242;7.956;2024-02-21T00:55:10;19.60;;;7.20;;
5121;SDS011;2563;52.242;7.956;2024-02-21T00:57:36;22.47;;;7.80;;
5121;SDS011;2563;52.242;7.956;2024-02-21T01:00:04;20.30;;;7.70;;
5121;SDS011;2563;52.242;7.956;2024-02-21T01:02:30;17.23;;;6.60;;
5121;SDS011;2563;52.242;7.956;2024-02-21T01:04:56;23.87;;;8.17;;
5121;SDS011;2563;52.242;7.956;2024-02-21T01:07:22;23.60;;;8.27;;
5121;SDS011;2563;52.242;7.956;2024-02-21T01:09:48;23.67;;;7.80;;
5121;SDS011;2563;52.242;7.956;2024-02-21T01:12:13;19.63;;;8.33;;
5121;SDS011;2563;52.242;7.956;2024-02-21T01:14:38;19.27;;;7.63;;
5121;SDS011;2563;52.242;7.956;2024-02-21T01:17:04;23.13;;;8.97;;
5121;SDS011;2563;52.242;7.956;2024-02-21T01:19:31;21.93;;;8.33;;
5121;SDS011;2563;52.242;7.956;2024-02-21T01:21:56;22.87;;;7.53;;
5121;SDS011;2563;52.242;7.956;2024-02-21T01:24:22;19.53;;;7.50;;
5121;SDS011;2563;52.242;7.956;2024-02-21T01:26:47;19.27;;;8.10;;
5121;SDS011;2563;52.242;7.956;2024-02-21T01:29:12;26.03;;;8.27;;
5121;SDS011;2563;52.242;7.956;2024-02-21T01:31:38;21.90;;;7.93;;
5121;SDS011;2563;52.242;7.956;2024-02-21T01:34:03;24.60;;;8.27;;
5121;SDS011;2563;52.242;7.956;2024-02-21T01:36:28;19.83;;;7.47;;
5121;SDS011;2563;52.242;7.956;2024-02-21T01:38:54;18.97;;;7.70;;
5121;SDS011;2563;52.242;7.956;2024-02-21T01:41:19;16.50;;;6.90;;
5121;SDS011;2563;52.242;7.956;2024-02-21T01:43:44;20.77;;;8.03;;
5121;SDS011;2563;52.242;7.956;2024-02-21T01:46:10;25.70;;;7.73;;
5121;SDS011;2563;52.242;7.956;2024-02-21T01:48:36;24.43;;;7.97;;
5121;SDS011;2563;52.242;7.956;2024-02-21T01:51:01;22.10;;;8.33;;
5121;SDS011;2563;52.242;7.956;2024-02-21T01:53:30;28.33;;;9.30;;
5121;SDS011;2563;52.242;7.956;2024-02-21T01:55:59;27.57;;;8.60;;
5121;SDS011;2563;52.242;7.956;2024-02-21T01:58:25;25.77;;;7.90;;
5121;SDS011;2563;52.242;7.956;2024-02-21T02:00:51;18.03;;;6.87;;
5121;SDS011;2563;52.242;7.956;2024-02-21T02:03:16;20.50;;;8.20;;
5121;SDS011;2563;52.242;7.956;2024-02-21T02:05:45;19.20;;;7.40;;
5121;SDS011;2563;52.242;7.956;2024-02-21T02:08:12;20.33;;;7.43;;
5121;SDS011;2563;52.242;7.956;2024-02-21T02:10:39;25.93;;;8.83;;
5121;SDS011;2563;52.242;7.956;2024-02-21T02:13:05;21.37;;;7.63;;
5121;SDS011;2563;52.242;7.956;2024-02-21T02:18:28;27.40;;;9.20;;
5121;SDS011;2563;52.242;7.956;2024-02-21T02:20:54;40.27;;;9.27;;
5121;SDS011;2563;52.242;7.956;2024-02-21T02:23:26;26.40;;;9.20;;
5121;SDS011;2563;52.242;7.956;2024-02-21T02:25:54;24.77;;;9.17;;
5121;SDS011;2563;52.242;7.956;2024-02-21T02:28:21;24.23;;;9.73;;
5121;SDS011;2563;52.242;7.956;2024-02-21T02:30:47;17.53;;;7.50;;
5121;SDS011;2563;52.242;7.956;2024-02-21T02:33:13;22.40;;;8.83;;
5121;SDS011;2563;52.242;7.956;2024-02-21T02:35:38;22.00;;;8.10;;
5121;SDS011;2563;52.242;7.956;2024-02-21T02:38:04;23.10;;;8.27;;
5121;SDS011;2563;52.242;7.956;2024-02-21T02:40:29;28.43;;;8.70;;
5121;SDS011;2563;52.242;7.956;2024-02-21T02:42:58;35.67;;;9.20;;
5121;SDS011;2563;52.242;7.956;2024-02-21T02:45:24;24.07;;;8.73;;
5121;SDS011;2563;52.242;7.956;2024-02-21T02:47:51;22.57;;;9.30;;
5121;SDS011;2563;52.242;7.956;2024-02-21T02:50:20;24.10;;;9.00;;
5121;SDS011;2563;52.242;7.956;2024-02-21T02:52:45;24.30;;;8.33;;
5121;SDS011;2563;52.242;7.956;2024-02-21T02:55:11;28.07;;;9.27;;
5121;SDS011;2563;52.242;7.956;2024-02-21T02:57:37;19.37;;;8.17;;
5121;SDS011;2563;52.242;7.956;2024-02-21T03:00:02;39.20;;;10.30;;
5121;SDS011;2563;52.242;7.956;2024-02-21T03:02:28;18.90;;;9.10;;
5121;SDS011;2563;52.242;7.956;2024-02-21T03:04:55;25.03;;;9.80;;
5121;SDS011;2563;52.242;7.956;2024-02-21T03:07:20;24.00;;;8.00;;
5121;SDS011;2563;52.242;7.956;2024-02-21T03:09:46;24.23;;;8.50;;
5121;SDS011;2563;52.242;7.956;2024-02-21T03:12:11;22.47;;;9.20;;
5121;SDS011;2563;52.242;7.956;2024-02-21T03:14:37;25.07;;;9.90;;
5121;SDS011;2563;52.242;7.956;2024-02-21T03:17:02;29.13;;;8.03;;
5121;SDS011;2563;52.242;7.956;2024-02-21T03:19:28;30.83;;;9.00;;
5121;SDS011;2563;52.242;7.956;2024-02-21T03:21:54;26.17;;;8.83;;
5121;SDS011;2563;52.242;7.956;2024-02-21T03:24:20;23.30;;;9.23;;
5121;SDS011;2563;52.242;7.956;2024-02-21T03:26:45;22.40;;;8.30;;
5121;SDS011;2563;52.242;7.956;2024-02-21T03:29:13;17.87;;;7.80;;
5121;SDS011;2563;52.242;7.956;2024-02-21T03:31:40;26.00;;;8.30;;
5121;SDS011;2563;52.242;7.956;2024-02-21T03:34:05;25.53;;;9.53;;
5121;SDS011;2563;52.242;7.956;2024-02-21T03:36:31;20.80;;;8.60;;
5121;SDS011;2563;52.242;7.956;2024-02-21T03:38:56;28.63;;;10.80;;
5121;SDS011;2563;52.242;7.956;2024-02-21T03:41:21;20.10;;;8.37;;
5121;SDS011;2563;52.242;7.956;2024-02-21T03:43:47;30.30;;;9.57;;
5121;SDS011;2563;52.242;7.956;2024-02-21T03:46:12;23.33;;;8.40;;
5121;SDS011;2563;52.242;7.956;2024-02-21T03:48:38;22.43;;;8.43;;
5121;SDS011;2563;52.242;7.956;2024-02-21T03:51:03;23.70;;;8.77;;
5121;SDS011;2563;52.242;7.956;2024-02-21T03:53:30;22.87;;;8.87;;
5121;SDS011;2563;52.242;7.956;2024-02-21T03:55:55;19.93;;;8.17;;
5121;SDS011;2563;52.242;7.956;2024-02-21T03:58:21;18.53;;;7.93;;
5121;SDS011;2563;52.242;7.956;2024-02-21T04:00:47;22.23;;;8.73;;
5121;SDS011;2563;52.242;7.956;2024-02-21T04:03:13;29.43;;;9.67;;
5121;SDS011;2563;52.242;7.956;2024-02-21T04:05:38;28.37;;;8.50;;
5121;SDS011;2563;52.242;7.956;2024-02-21T04:08:04;25.20;;;8.47;;
5121;SDS011;2563;52.242;7.956;2024-02-21T04:10:30;25.13;;;9.70;;
5121;SDS011;2563;52.242;7.956;2024-02-21T04:12:55;23.30;;;9.00;;
5121;SDS011;2563;52.242;7.956;2024-02-21T04:15:21;22.53;;;8.33;;
5121;SDS011;2563;52.242;7.956;2024-02-21T04:17:46;17.93;;;8.07;;
5121;SDS011;2563;52.242;7.956;2024-02-21T04:20:15;20.50;;;8.30;;
5121;SDS011;2563;52.242;7.956;2024-02-21T04:22:44;32.30;;;9.33;;
5121;SDS011;2563;52.242;7.956;2024-02-21T04:25:10;29.33;;;9.70;;
5121;SDS011;2563;52.242;7.956;2024-02-21T04:27:36;31.37;;;9.87;;
5121;SDS011;2563;52.242;7.956;2024-02-21T04:30:03;27.20;;;8.80;;
5121;SDS011;2563;52.242;7.956;2024-02-21T04:32:28;25.13;;;8.07;;
5121;SDS011;2563;52.242;7.956;2024-02-21T04:34:54;23.87;;;8.07;;
5121;SDS011;2563;52.242;7.956;2024-02-21T04:37:19;22.33;;;9.20;;
5121;SDS011;2563;52.242;7.956;2024-02-21T04:39:45;23.27;;;8.83;;
5121;SDS011;2563;52.242;7.956;2024-02-21T04:42:11;26.10;;;8.33;;
5121;SDS011;2563;52.242;7.956;2024-02-21T04:44:36;27.60;;;9.60;;
5121;SDS011;2563;52.242;7.956;2024-02-21T04:47:02;22.07;;;9.20;;
5121;SDS011;2563;52.242;7.956;2024-02-21T04:49:28;26.27;;;8.67;;
5121;SDS011;2563;52.242;7.956;2024-02-21T04:51:54;29.63;;;8.20;;
5121;SDS011;2563;52.242;7.956;2024-02-21T04:54:19;25.00;;;9.07;;
5121;SDS011;2563;52.242;7.956;2024-02-21T04:56:45;26.13;;;9.23;;
5121;SDS011;2563;52.242;7.956;2024-02-21T04:59:10;23.40;;;9.50;;
5121;SDS011;2563;52.242;7.956;2024-02-21T05:01:35;22.80;;;9.53;;
5121;SDS011;2563;52.242;7.956;2024-02-21T05:04:01;21.77;;;9.23;;
5121;SDS011;2563;52.242;7.956;2024-02-21T05:06:27;29.20;;;9.37;;
5121;SDS011;2563;52.242;7.956;2024-02-21T05:08:52;35.93;;;10.07;;
5121;SDS011;2563;52.242;7.956;2024-02-21T05:11:20;24.13;;;8.70;;
5121;SDS011;2563;52.242;7.956;2024-02-21T05:13:45;21.97;;;8.73;;
5121;SDS011;2563;52.242;7.956;2024-02-21T05:16:11;33.03;;;10.13;;
5121;SDS011;2563;52.242;7.956;2024-02-21T05:18:36;29.90;;;9.57;;
5121;SDS011;2563;52.242;7.956;2024-02-21T05:21:01;21.97;;;8.50;;
5121;SDS011;2563;52.242;7.956;2024-02-21T05:23:27;32.60;;;10.37;;
5121;SDS011;2563;52.242;7.956;2024-02-21T05:25:52;25.83;;;8.40;;
5121;SDS011;2563;52.242;7.956;2024-02-21T05:28:18;25.63;;;7.53;;
5121;SDS011;2563;52.242;7.956;2024-02-21T05:30:43;28.13;;;8.30;;
5121;SDS011;2563;52.242;7.956;2024-02-21T05:33:09;24.63;;;8.50;;
5121;SDS011;2563;52.242;7.956;2024-02-21T05:35:35;21.60;;;8.30;;
5121;SDS011;2563;52.242;7.956;2024-02-21T05:38:01;22.17;;;9.20;;
5121;SDS011;2563;52.242;7.956;2024-02-21T05:40:31;28.70;;;7.40;;
5121;SDS011;2563;52.242;7.956;2024-02-21T05:42:56;19.40;;;8.20;;
5121;SDS011;2563;52.242;7.956;2024-02-21T05:45:22;23.10;;;8.27;;
5121;SDS011;2563;52.242;7.956;2024-02-21T05:47:48;26.77;;;8.20;;
5121;SDS011;2563;52.242;7.956;2024-02-21T05:50:13;24.53;;;8.63;;
5121;SDS011;2563;52.242;7.956;2024-02-21T05:52:39;23.23;;;8.10;;
5121;SDS011;2563;52.242;7.956;2024-02-21T05:55:06;23.27;;;8.73;;
5121;SDS011;2563;52.242;7.956;2024-02-21T05:57:32;25.83;;;7.93;;
5121;SDS011;2563;52.242;7.956;2024-02-21T05:59:57;16.43;;;6.93;;
5121;SDS011;2563;52.242;7.956;2024-02-21T06:02:22;19.33;;;7.80;;
5121;SDS011;2563;52.242;7.956;2024-02-21T06:04:48;18.63;;;7.00;;
5121;SDS011;2563;52.242;7.956;2024-02-21T06:07:13;18.13;;;7.87;;
5121;SDS011;2563;52.242;7.956;2024-02-21T06:09:38;24.20;;;8.53;;
5121;SDS011;2563;52.242;7.956;2024-02-21T06:12:04;28.90;;;8.13;;
5121;SDS011;2563;52.242;7.956;2024-02-21T06:14:29;22.43;;;7.43;;
5121;SDS011;2563;52.242;7.956;2024-02-21T06:16:55;25.00;;;7.50;;
5121;SDS011;2563;52.242;7.956;2024-02-21T06:19:20;30.33;;;7.87;;
5121;SDS011;2563;52.242;7.956;2024-02-21T06:21:45;23.20;;;7.30;;
5121;SDS011;2563;52.242;7.956;2024-02-21T06:24:11;21.97;;;8.10;;
5121;SDS011;2563;52.242;7.956;2024-02-21T06:26:37;25.47;;;7.37;;
5121;SDS011;2563;52.242;7.956;2024-02-21T06:29:03;28.67;;;7.80;;
5121;SDS011;2563;52.242;7.956;2024-02-21T06:31:28;23.07;;;7.67;;
5121;SDS011;2563;52.242;7.956;2024-02-21T06:33:54;20.70;;;8.00;;
5121;SDS011;2563;52.242;7.956;2024-02-21T06:36:19;21.27;;;7.90;;
5121;SDS011;2563;52.242;7.956;2024-02-21T06:38:44;19.83;;;7.20;;
5121;SDS011;2563;52.242;7.956;2024-02-21T06:41:16;20.83;;;6.97;;
5121;SDS011;2563;52.242;7.956;2024-02-21T06:43:44;22.03;;;7.70;;
5121;SDS011;2563;52.242;7.956;2024-02-21T06:46:10;22.27;;;6.77;;
5121;SDS011;2563;52.242;7.956;2024-02-21T06:48:36;19.80;;;7.07;;
5121;SDS011;2563;52.242;7.956;2024-02-21T06:51:01;16.97;;;6.20;;
5121;SDS011;2563;52.242;7.956;2024-02-21T06:53:26;26.63;;;7.87;;
5121;SDS011;2563;52.242;7.956;2024-02-21T06:55:52;21.40;;;7.53;;
5121;SDS011;2563;52.242;7.956;2024-02-21T06:58:17;21.43;;;8.40;;
5121;SDS011;2563;52.242;7.956;2024-02-21T07:00:42;26.80;;;8.40;;
5121;SDS011;2563;52.242;7.956;2024-02-21T07:03:08;17.80;;;6.33;;
5121;SDS011;2563;52.242;7.956;2024-02-21T07:05:33;19.80;;;7.27;;
5121;SDS011;2563;52.242;7.956;2024-02-21T07:07:59;23.93;;;7.57;;
5121;SDS011;2563;52.242;7.956;2024-02-21T07:10:24;15.77;;;6.50;;
5121;SDS011;2563;52.242;7.956;2024-02-21T07:12:50;20.60;;;6.33;;
5121;SDS011;2563;52.242;7.956;2024-02-21T07:15:17;25.50;;;7.80;;
5121;SDS011;2563;52.242;7.956;2024-02-21T07:17:42;15.23;;;6.40;;
5121;SDS011;2563;52.242;7.956;2024-02-21T07:20:08;13.17;;;5.90;;
5121;SDS011;2563;52.242;7.956;2024-02-21T07:22:33;23.43;;;6.40;;
5121;SDS011;2563;52.242;7.956;2024-02-21T07:24:59;16.40;;;6.17;;
5121;SDS011;2563;52.242;7.956;2024-02-21T07:27:24;18.67;;;6.00;;
5121;SDS011;2563;52.242;7.956;2024-02-21T07:29:53;13.70;;;6.37;;
5121;SDS011;2563;52.242;7.956;2024-02-21T07:32:18;14.90;;;6.20;;
5121;SDS011;2563;52.242;7.956;2024-02-21T07:34:44;14.37;;;6.00;;
5121;SDS011;2563;52.242;7.956;2024-02-21T07:37:09;19.93;;;6.70;;
5121;SDS011;2563;52.242;7.956;2024-02-21T07:39:38;25.73;;;6.53;;
5121;SDS011;2563;52.242;7.956;2024-02-21T07:42:03;15.77;;;6.00;;
5121;SDS011;2563;52.242;7.956;2024-02-21T07:44:29;16.33;;;6.33;;
5121;SDS011;2563;52.242;7.956;2024-02-21T07:46:54;16.80;;;6.83;;
5121;SDS011;2563;52.242;7.956;2024-02-21T07:49:19;18.97;;;6.10;;
5121;SDS011;2563;52.242;7.956;2024-02-21T07:51:45;20.33;;;6.87;;
5121;SDS011;2563;52.242;7.956;2024-02-21T07:54:10;16.70;;;6.47;;
5121;SDS011;2563;52.242;7.956;2024-02-21T07:56:36;15.17;;;6.23;;
5121;SDS011;2563;52.242;7.956;2024-02-21T07:59:01;19.00;;;6.27;;
5121;SDS011;2563;52.242;7.956;2024-02-21T08:01:26;18.93;;;7.50;;
5121;SDS011;2563;52.242;7.956;2024-02-21T08:03:52;27.03;;;7.60;;
5121;SDS011;2563;52.242;7.956;2024-02-21T08:06:17;19.93;;;6.37;;
5121;SDS011;2563;52.242;7.956;2024-02-21T08:08:42;20.77;;;7.57;;
5121;SDS011;2563;52.242;7.956;2024-02-21T08:11:08;18.20;;;6.83;;
5121;SDS011;2563;52.242;7.956;2024-02-21T08:13:33;22.97;;;8.10;;
5121;SDS011;2563;52.242;7.956;2024-02-21T08:15:58;25.87;;;6.80;;
5121;SDS011;2563;52.242;7.956;2024-02-21T08:18:25;20.93;;;6.73;;
5121;SDS011;2563;52.242;7.956;2024-02-21T08:20:50;29.87;;;9.30;;
5121;SDS011;2563;52.242;7.956;2024-02-21T08:23:16;17.57;;;8.20;;
5121;SDS011;2563;52.242;7.956;2024-02-21T08:25:43;29.63;;;9.60;;
5121;SDS011;2563;52.242;7.956;2024-02-21T08:28:09;19.40;;;7.40;;
5121;SDS011;2563;52.242;7.956;2024-02-21T08:30:34;15.23;;;7.00;;
5121;SDS011;2563;52.242;7.956;2024-02-21T08:32:59;15.57;;;7.13;;
5121;SDS011;2563;52.242;7.956;2024-02-21T08:35:25;20.87;;;7.47;;
5121;SDS011;2563;52.242;7.956;2024-02-21T08:37:50;20.40;;;8.20;;
5121;SDS011;2563;52.242;7.956;2024-02-21T08:40:16;19.63;;;8.50;;
5121;SDS011;2563;52.242;7.956;2024-02-21T08:42:46;14.77;;;6.23;;
5121;SDS011;2563;52.242;7.956;2024-02-21T08:45:12;17.37;;;6.67;;
5121;SDS011;2563;52.242;7.956;2024-02-21T08:47:40;17.23;;;6.47;;
5121;SDS011;2563;52.242;7.956;2024-02-21T08:50:06;18.93;;;7.03;;
5121;SDS011;2563;52.242;7.956;2024-02-21T08:52:36;18.73;;;7.20;;
5121;SDS011;2563;52.242;7.956;2024-02-21T08:55:01;17.87;;;6.50;;
5121;SDS011;2563;52.242;7.956;2024-02-21T08:57:27;23.47;;;7.67;;
5121;SDS011;2563;52.242;7.956;2024-02-21T08:59:52;17.07;;;7.03;;
5121;SDS011;2563;52.242;7.956;2024-02-21T09:02:17;19.07;;;6.90;;
5121;SDS011;2563;52.242;7.956;2024-02-21T09:04:43;17.23;;;6.77;;
5121;SDS011;2563;52.242;7.956;2024-02-21T09:07:11;16.87;;;6.13;;
5121;SDS011;2563;52.242;7.956;2024-02-21T09:09:37;17.10;;;6.10;;
5121;SDS011;2563;52.242;7.956;2024-02-21T09:12:06;14.97;;;5.40;;
5121;SDS011;2563;52.242;7.956;2024-02-21T09:14:32;14.90;;;5.10;;
5121;SDS011;2563;52.242;7.956;2024-02-21T09:16:58;14.00;;;5.23;;
5121;SDS011;2563;52.242;7.956;2024-02-21T09:19:23;12.83;;;4.90;;
5121;SDS011;2563;52.242;7.956;2024-02-21T09:21:49;17.63;;;5.30;;
5121;SDS011;2563;52.242;7.956;2024-02-21T09:24:14;17.67;;;5.20;;
5121;SDS011;2563;52.242;7.956;2024-02-21T09:26:40;15.07;;;4.77;;
5121;SDS011;2563;52.242;7.956;2024-02-21T09:29:05;10.53;;;4.30;;
5121;SDS011;2563;52.242;7.956;2024-02-21T09:31:30;14.00;;;4.83;;
5121;SDS011;2563;52.242;7.956;2024-02-21T09:33:56;15.07;;;5.40;;
5121;SDS011;2563;52.242;7.956;2024-02-21T09:36:21;17.10;;;4.33;;
5121;SDS011;2563;52.242;7.956;2024-02-21T09:38:47;16.90;;;4.87;;
5121;SDS011;2563;52.242;7.956;2024-02-21T09:41:21;15.67;;;5.23;;
5121;SDS011;2563;52.242;7.956;2024-02-21T09:43:51;11.07;;;4.10;;
5121;SDS011;2563;52.242;7.956;2024-02-21T09:46:18;14.47;;;4.50;;
5121;SDS011;2563;52.242;7.956;2024-02-21T09:49:04;11.10;;;4.37;;
5121;SDS011;2563;52.242;7.956;2024-02-21T09:51:38;14.30;;;4.30;;
5121;SDS011;2563;52.242;7.956;2024-02-21T09:54:06;17.80;;;3.73;;
5121;SDS011;2563;52.242;7.956;2024-02-21T09:56:32;13.00;;;4.57;;
5121;SDS011;2563;52.242;7.956;2024-02-21T09:58:58;13.30;;;3.90;;
5121;SDS011;2563;52.242;7.956;2024-02-21T10:01:23;10.83;;;3.90;;
5121;SDS011;2563;52.242;7.956;2024-02-21T10:03:49;11.77;;;4.30;;
5121;SDS011;2563;52.242;7.956;2024-02-21T10:06:14;16.10;;;3.90;;
5121;SDS011;2563;52.242;7.956;2024-02-21T10:08:40;18.53;;;3.67;;
5121;SDS011;2563;52.242;7.956;2024-02-21T10:11:05;11.83;;;4.23;;
5121;SDS011;2563;52.242;7.956;2024-02-21T10:13:30;10.40;;;4.00;;
5121;SDS011;2563;52.242;7.956;2024-02-21T10:18:27;10.60;;;4.27;;
5121;SDS011;2563;52.242;7.956;2024-02-21T10:21:02;11.43;;;4.17;;
5121;SDS011;2563;52.242;7.956;2024-02-21T10:23:29;9.77;;;3.97;;
5121;SDS011;2563;52.242;7.956;2024-02-21T10:26:05;15.50;;;4.40;;
5121;SDS011;2563;52.242;7.956;2024-02-21T10:28:32;11.90;;;4.23;;
5121;SDS011;2563;52.242;7.956;2024-02-21T10:30:57;9.13;;;3.83;;
5121;SDS011;2563;52.242;7.956;2024-02-21T10:33:23;9.87;;;4.20;;
5121;SDS011;2563;52.242;7.956;2024-02-21T10:35:50;16.87;;;5.23;;
5121;SDS011;2563;52.242;7.956;2024-02-21T10:38:16;11.73;;;4.23;;
5121;SDS011;2563;52.242;7.956;2024-02-21T10:40:41;14.50;;;4.60;;
5121;SDS011;2563;52.242;7.956;2024-02-21T10:43:10;16.13;;;4.97;;
5121;SDS011;2563;52.242;7.956;2024-02-21T10:45:37;19.83;;;4.47;;
5121;SDS011;2563;52.242;7.956;2024-02-21T10:48:11;8.67;;;4.10;;
5121;SDS011;2563;52.242;7.956;2024-02-21T10:50:49;9.63;;;4.23;;
5121;SDS011;2563;52.242;7.956;2024-02-21T10:56:21;10.40;;;4.10;;
5121;SDS011;2563;52.242;7.956;2024-02-21T10:58:59;15.53;;;5.10;;
5121;SDS011;2563;52.242;7.956;2024-02-21T11:01:27;10.67;;;4.50;;
5121;SDS011;2563;52.242;7.956;2024-02-21T11:03:55;16.60;;;5.03;;
5121;SDS011;2563;52.242;7.956;2024-02-21T11:06:22;16.47;;;5.13;;
5121;SDS011;2563;52.242;7.956;2024-02-21T11:08:59;12.03;;;4.90;;
5121;SDS011;2563;52.242;7.956;2024-02-21T11:11:39;13.67;;;5.87;;
5121;SDS011;2563;52.242;7.956;2024-02-21T11:14:11;9.83;;;4.20;;
5121;SDS011;2563;52.242;7.956;2024-02-21T11:16:43;12.80;;;4.13;;
5121;SDS011;2563;52.242;7.956;2024-02-21T11:19:29;10.33;;;4.30;;
5121;SDS011;2563;52.242;7.956;2024-02-21T11:21:55;9.30;;;4.60;;
5121;SDS011;2563;52.242;7.956;2024-02-21T11:24:26;9.93;;;4.40;;
5121;SDS011;2563;52.242;7.956;2024-02-21T11:26:53;12.63;;;5.07;;
5121;SDS011;2563;52.242;7.956;2024-02-21T11:29:25;13.77;;;5.30;;
5121;SDS011;2563;52.242;7.956;2024-02-21T11:31:51;13.10;;;5.00;;
5121;SDS011;2563;52.242;7.956;2024-02-21T11:34:18;10.50;;;5.50;;
5121;SDS011;2563;52.242;7.956;2024-02-21T11:36:48;9.13;;;4.63;;
5121;SDS011;2563;52.242;7.956;2024-02-21T11:39:24;13.73;;;5.57;;
5121;SDS011;2563;52.242;7.956;2024-02-21T11:42:06;11.40;;;5.43;;
5121;SDS011;2563;52.242;7.956;2024-02-21T11:44:35;10.57;;;4.80;;
5121;SDS011;2563;52.242;7.956;2024-02-21T11:47:07;15.63;;;4.93;;
5121;SDS011;2563;52.242;7.956;2024-02-21T11:49:37;8.90;;;4.03;;
5121;SDS011;2563;52.242;7.956;2024-02-21T11:52:06;10.77;;;4.50;;
5121;SDS011;2563;52.242;7.956;2024-02-21T11:54:32;11.20;;;4.53;;
5121;SDS011;2563;52.242;7.956;2024-02-21T11:56:59;13.90;;;4.50;;
5121;SDS011;2563;52.242;7.956;2024-02-21T11:59:25;10.07;;;3.60;;
5121;SDS011;2563;52.242;7.956;2024-02-21T12:01:52;7.60;;;3.40;;
5121;SDS011;2563;52.242;7.956;2024-02-21T12:04:18;12.60;;;3.97;;
5121;SDS011;2563;52.242;7.956;2024-02-21T12:06:45;8.90;;;3.47;;
5121;SDS011;2563;52.242;7.956;2024-02-21T12:09:17;7.77;;;3.40;;
5121;SDS011;2563;52.242;7.956;2024-02-21T12:11:43;7.63;;;3.17;;
5121;SDS011;2563;52.242;7.956;2024-02-21T12:14:09;15.83;;;4.23;;
5121;SDS011;2563;52.242;7.956;2024-02-21T12:16:35;9.97;;;3.87;;
5121;SDS011;2563;52.242;7.956;2024-02-21T12:19:03;12.30;;;4.70;;
5121;SDS011;2563;52.242;7.956;2024-02-21T12:21:32;15.70;;;4.50;;
5121;SDS011;2563;52.242;7.956;2024-02-21T12:26:47;18.87;;;5.30;;
5121;SDS011;2563;52.242;7.956;2024-02-21T12:29:13;11.17;;;4.57;;
5121;SDS011;2563;52.242;7.956;2024-02-21T12:31:38;12.20;;;4.90;;
5121;SDS011;2563;52.242;7.956;2024-02-21T12:34:04;12.93;;;5.03;;
5121;SDS011;2563;52.242;7.956;2024-02-21T12:36:33;11.80;;;5.43;;
5121;SDS011;2563;52.242;7.956;2024-02-21T12:38:59;18.23;;;4.70;;
5121;SDS011;2563;52.242;7.956;2024-02-21T12:41:26;13.43;;;5.00;;
5121;SDS011;2563;52.242;7.956;2024-02-21T12:43:52;13.27;;;4.93;;
5121;SDS011;2563;52.242;7.956;2024-02-21T12:46:18;13.33;;;5.10;;
5121;SDS011;2563;52.242;7.956;2024-02-21T12:48:44;12.53;;;4.80;;
5121;SDS011;2563;52.242;7.956;2024-02-21T12:51:09;12.50;;;4.93;;
5121;SDS011;2563;52.242;7.956;2024-02-21T12:53:35;11.90;;;5.13;;
5121;SDS011;2563;52.242;7.956;2024-02-21T12:56:00;16.67;;;5.07;;
5121;SDS011;2563;52.242;7.956;2024-02-21T12:58:25;23.97;;;8.67;;
5121;SDS011;2563;52.242;7.956;2024-02-21T13:00:51;14.30;;;5.60;;
5121;SDS011;2563;52.242;7.956;2024-02-21T13:03:16;14.60;;;5.77;;
5121;SDS011;2563;52.242;7.956;2024-02-21T13:05:42;19.43;;;6.40;;
5121;SDS011;2563;52.242;7.956;2024-02-21T13:08:08;17.40;;;5.57;;
5121;SDS011;2563;52.242;7.956;2024-02-21T13:10:34;18.90;;;5.47;;
5121;SDS011;2563;52.242;7.956;2024-02-21T13:13:00;22.00;;;7.10;;
5121;SDS011;2563;52.242;7.956;2024-02-21T13:15:26;17.50;;;5.90;;
5121;SDS011;2563;52.242;7.956;2024-02-21T13:17:53;13.00;;;4.90;;
5121;SDS011;2563;52.242;7.956;2024-02-21T13:20:19;14.53;;;5.80;;
5121;SDS011;2563;52.242;7.956;2024-02-21T13:22:44;14.47;;;5.13;;
5121;SDS011;2563;52.242;7.956;2024-02-21T13:25:10;15.23;;;6.07;;
5121;SDS011;2563;52.242;7.956;2024-02-21T13:27:35;16.03;;;6.40;;
5121;SDS011;2563;52.242;7.956;2024-02-21T13:30:01;13.00;;;6.20;;
5121;SDS011;2563;52.242;7.956;2024-02-21T13:32:30;12.30;;;5.40;;
5121;SDS011;2563;52.242;7.956;2024-02-21T13:34:56;11.90;;;6.23;;
5121;SDS011;2563;52.242;7.956;2024-02-21T13:37:21;13.87;;;5.20;;
5121;SDS011;2563;52.242;7.956;2024-02-21T13:39:47;15.50;;;5.97;;
5121;SDS011;2563;52.242;7.956;2024-02-21T13:42:12;14.63;;;5.17;;
5121;SDS011;2563;52.242;7.956;2024-02-21T13:44:38;18.03;;;6.07;;
5121;SDS011;2563;52.242;7.956;2024-02-21T13:47:03;9.20;;;4.87;;
5121;SDS011;2563;52.242;7.956;2024-02-21T13:49:29;15.27;;;5.00;;
5121;SDS011;2563;52.242;7.956;2024-02-21T13:51:55;12.30;;;5.00;;
5121;SDS011;2563;52.242;7.956;2024-02-21T13:54:20;11.47;;;5.07;;
5121;SDS011;2563;52.242;7.956;2024-02-21T13:56:46;14.20;;;5.40;;
5121;SDS011;2563;52.242;7.956;2024-02-21T13:59:12;12.90;;;7.03;;
5121;SDS011;2563;52.242;7.956;2024-02-21T14:01:38;18.63;;;6.50;;
5121;SDS011;2563;52.242;7.956;2024-02-21T14:04:04;14.37;;;6.00;;
5121;SDS011;2563;52.242;7.956;2024-02-21T14:06:29;13.17;;;5.87;;
5121;SDS011;2563;52.242;7.956;2024-02-21T14:08:55;16.17;;;5.60;;
5121;SDS011;2563;52.242;7.956;2024-02-21T14:11:20;11.90;;;5.60;;
5121;SDS011;2563;52.242;7.956;2024-02-21T14:13:45;17.00;;;6.10;;
5121;SDS011;2563;52.242;7.956;2024-02-21T14:16:11;11.77;;;6.03;;
5121;SDS011;2563;52.242;7.956;2024-02-21T14:18:39;10.10;;;4.83;;
5121;SDS011;2563;52.242;7.956;2024-02-21T14:21:08;13.07;;;6.50;;
5121;SDS011;2563;52.242;7.956;2024-02-21T14:23:38;13.33;;;5.70;;
5121;SDS011;2563;52.242;7.956;2024-02-21T14:26:04;24.87;;;7.20;;
5121;SDS011;2563;52.242;7.956;2024-02-21T14:28:29;11.00;;;5.30;;
5121;SDS011;2563;52.242;7.956;2024-02-21T14:30:55;10.87;;;5.20;;
5121;SDS011;2563;52.242;7.956;2024-02-21T14:33:31;13.33;;;5.27;;
5121;SDS011;2563;52.242;7.956;2024-02-21T14:35:57;15.07;;;5.40;;
5121;SDS011;2563;52.242;7.956;2024-02-21T14:38:22;15.53;;;5.00;;
5121;SDS011;2563;52.242;7.956;2024-02-21T14:40:48;18.87;;;5.50;;
5121;SDS011;2563;52.242;7.956;2024-02-21T14:43:13;16.07;;;4.97;;
5121;SDS011;2563;52.242;7.956;2024-02-21T14:45:38;19.80;;;4.67;;
5121;SDS011;2563;52.242;7.956;2024-02-21T14:48:05;15.43;;;4.60;;
5121;SDS011;2563;52.242;7.956;2024-02-21T14:50:30;11.00;;;3.23;;
5121;SDS011;2563;52.242;7.956;2024-02-21T14:52:56;12.20;;;5.30;;
5121;SDS011;2563;52.242;7.956;2024-02-21T14:55:21;11.70;;;4.63;;
5121;SDS011;2563;52.242;7.956;2024-02-21T14:57:48;16.23;;;4.07;;
5121;SDS011;2563;52.242;7.956;2024-02-21T15:00:13;15.80;;;4.20;;
5121;SDS011;2563;52.242;7.956;2024-02-21T15:02:39;13.80;;;3.60;;
5121;SDS011;2563;52.242;7.956;2024-02-21T15:05:05;14.40;;;4.37;;
5121;SDS011;2563;52.242;7.956;2024-02-21T15:07:31;8.30;;;3.50;;
5121;SDS011;2563;52.242;7.956;2024-02-21T15:09:56;8.03;;;2.93;;